Time;durP1;ratioP1;P1;durP2;ratioP2;P2;SDS_P1;SDS_P2;PMS_P1;PMS_P2;Temp;Humidity;BMP_temperature;BMP_pressure;BME280_temperature;BME280_humidity;BME280_pressure;Samples;Min_cycle;Max_cycle;Signal;HPM_P1;HPM_P2
2023/06/22 00:01:50;;;;;;;10.30;2.15;;;19.00;99.90;;;;;;5153359;27;20402;-66
2023/06/22 00:04:15;;;;;;;1.05;1.00;;;19.00;99.90;;;;;;5127059;27;20038;-66
2023/06/22 00:06:41;;;;;;;3.42;1.40;;;19.10;99.90;;;;;;5128659;27;20091;-66
2023/06/22 00:09:07;;;;;;;0.52;0.52;;;19.00;99.90;;;;;;5147437;27;20043;-66
2023/06/22 00:11:33;;;;;;;0.65;0.65;;;19.00;99.90;;;;;;5142970;27;20050;-66
2023/06/22 00:13:59;;;;;;;3.03;1.30;;;18.90;99.90;;;;;;5126537;27;20138;-66
2023/06/22 00:16:25;;;;;;;2.30;1.48;;;19.00;99.90;;;;;;5142766;27;20130;-66
2023/06/22 00:18:50;;;;;;;2.83;0.85;;;18.90;99.90;;;;;;5145833;27;20176;-66
2023/06/22 00:21:16;;;;;;;0.63;0.63;;;19.00;99.90;;;;;;5147003;27;20042;-67
2023/06/22 00:23:42;;;;;;;4.15;1.55;;;18.90;99.90;;;;;;5144679;27;20043;-66
2023/06/22 00:26:07;;;;;;;1.27;1.00;;;18.90;99.90;;;;;;5143636;27;20046;-66
2023/06/22 00:28:34;;;;;;;0.40;0.40;;;18.80;99.90;;;;;;5126248;27;20050;-66
2023/06/22 00:31:00;;;;;;;0.73;0.73;;;18.80;99.90;;;;;;5146838;27;20142;-66
2023/06/22 00:33:28;;;;;;;0.55;0.55;;;18.80;99.90;;;;;;5143240;27;20043;-66
2023/06/22 00:35:53;;;;;;;3.10;1.55;;;18.80;99.90;;;;;;5144553;27;20086;-66
2023/06/22 00:38:19;;;;;;;2.15;0.63;;;18.80;99.90;;;;;;5146978;27;20085;-66
2023/06/22 00:40:45;;;;;;;1.17;1.05;;;18.80;99.90;;;;;;5146153;27;20034;-66
2023/06/22 00:43:10;;;;;;;0.47;0.47;;;18.80;99.90;;;;;;5144562;27;20059;-66
2023/06/22 00:45:36;;;;;;;0.93;0.93;;;18.80;99.90;;;;;;5141300;27;20027;-66
2023/06/22 00:48:02;;;;;;;1.75;1.63;;;18.80;99.90;;;;;;5142671;27;20035;-66
2023/06/22 00:50:35;;;;;;;2.05;0.88;;;18.80;99.90;;;;;;5144259;27;20053;-66
2023/06/22 00:53:08;;;;;;;0.45;0.45;;;18.80;99.90;;;;;;5147689;27;20402;-66
2023/06/22 00:55:37;;;;;;;0.82;0.63;;;18.70;99.90;;;;;;5137977;27;20481;-66
2023/06/22 00:58:05;;;;;;;1.77;0.98;;;18.70;99.90;;;;;;5143673;27;20041;-66
2023/06/22 01:00:32;;;;;;;0.30;0.30;;;18.60;99.90;;;;;;5124461;27;20509;-66
2023/06/22 01:02:58;;;;;;;1.30;1.05;;;18.70;99.90;;;;;;5146062;27;20095;-66
2023/06/22 01:05:24;;;;;;;0.30;0.30;;;18.60;99.90;;;;;;5146791;27;20042;-66
2023/06/22 01:07:55;;;;;;;0.43;0.43;;;18.60;99.90;;;;;;5148098;27;20084;-66
2023/06/22 01:10:45;;;;;;;0.93;0.73;;;18.60;99.90;;;;;;5143221;27;20534;-66
2023/06/22 01:13:37;;;;;;;0.90;0.85;;;18.60;99.90;;;;;;5138297;27;20053;-66
2023/06/22 01:16:10;;;;;;;2.85;1.60;;;18.60;99.90;;;;;;5140807;27;20039;-66
2023/06/22 01:18:40;;;;;;;0.10;0.10;;;18.60;99.90;;;;;;5145755;27;20043;-66
2023/06/22 01:21:08;;;;;;;1.02;0.57;;;18.70;99.90;;;;;;5142725;27;20402;-66
2023/06/22 01:23:42;;;;;;;0.38;0.38;;;18.60;99.90;;;;;;5145983;27;20046;-66
2023/06/22 01:26:32;;;;;;;0.15;0.15;;;18.60;99.90;;;;;;5142154;27;20047;-66
2023/06/22 01:29:00;;;;;;;1.42;1.33;;;18.50;99.90;;;;;;5143473;27;20043;-66
2023/06/22 01:31:29;;;;;;;0.85;0.85;;;18.60;99.90;;;;;;5145462;27;20051;-66
2023/06/22 01:33:58;;;;;;;2.47;1.00;;;18.50;99.90;;;;;;5143495;27;20088;-66
2023/06/22 01:36:25;;;;;;;0.52;0.52;;;18.50;99.90;;;;;;5145043;27;20087;-66
2023/06/22 01:38:53;;;;;;;0.77;0.65;;;18.50;99.90;;;;;;5145691;27;20091;-66
2023/06/22 01:41:20;;;;;;;0.77;0.77;;;18.50;99.90;;;;;;5147425;27;20050;-66
2023/06/22 01:43:47;;;;;;;0.90;0.57;;;18.50;99.90;;;;;;5144501;27;20073;-66
2023/06/22 01:46:14;;;;;;;1.95;1.55;;;18.40;99.90;;;;;;5143536;27;20039;-66
2023/06/22 01:48:40;;;;;;;1.13;1.02;;;18.50;99.90;;;;;;5145498;27;20034;-66
2023/06/22 01:51:06;;;;;;;0.20;0.20;;;18.40;99.90;;;;;;5141466;27;20027;-66
2023/06/22 01:53:32;;;;;;;0.28;0.28;;;18.40;99.90;;;;;;5141712;27;20031;-66
2023/06/22 01:55:58;;;;;;;0.32;0.32;;;18.40;99.90;;;;;;5140311;27;20039;-66
2023/06/22 01:58:27;;;;;;;0.80;0.80;;;18.40;99.90;;;;;;5139719;27;20132;-66
2023/06/22 02:01:12;;;;;;;0.55;0.55;;;18.40;99.90;;;;;;5141881;27;20086;-66
2023/06/22 02:03:50;;;;;;;1.70;0.88;;;18.30;99.90;;;;;;5142009;27;20504;-66
2023/06/22 02:06:24;;;;;;;0.85;0.55;;;18.20;99.90;;;;;;5143368;27;20041;-66
2023/06/22 02:08:56;;;;;;;1.23;0.57;;;18.20;99.90;;;;;;5141139;27;20035;-66
2023/06/22 02:11:24;;;;;;;1.05;0.63;;;18.20;99.90;;;;;;5144581;27;20095;-66
2023/06/22 02:13:50;;;;;;;5.07;1.52;;;18.20;99.90;;;;;;5141958;27;20141;-66
2023/06/22 02:16:17;;;;;;;0.50;0.50;;;18.10;99.90;;;;;;5141035;27;20142;-66
2023/06/22 02:18:51;;;;;;;0.55;0.55;;;18.10;99.90;;;;;;5123638;27;20091;-66
2023/06/22 02:21:20;;;;;;;;;;;18.20;99.90;;;;;;5141414;27;20043;-66
2023/06/22 02:23:45;;;;;;;0.30;0.30;;;18.10;99.90;;;;;;5141320;27;19920;-66
2023/06/22 02:26:12;;;;;;;0.75;0.43;;;18.10;99.90;;;;;;5144196;27;20053;-66
2023/06/22 02:28:37;;;;;;;0.20;0.20;;;18.00;99.90;;;;;;5144334;27;20051;-66
2023/06/22 02:31:03;;;;;;;1.27;0.90;;;18.10;99.90;;;;;;5143261;27;20051;-66
2023/06/22 02:33:29;;;;;;;0.20;0.20;;;18.00;99.90;;;;;;5144876;27;20047;-66
2023/06/22 02:35:54;;;;;;;3.22;2.05;;;18.00;99.90;;;;;;5142148;27;20047;-66
2023/06/22 02:38:20;;;;;;;2.20;1.48;;;18.00;99.90;;;;;;5144827;27;20439;-66
2023/06/22 02:40:46;;;;;;;0.43;0.40;;;17.90;99.90;;;;;;5142861;27;20047;-66
2023/06/22 02:43:13;;;;;;;1.00;1.00;;;18.00;99.90;;;;;;5148610;27;20028;-66
2023/06/22 02:45:38;;;;;;;1.10;0.88;;;18.00;99.90;;;;;;5146188;27;20098;-66
2023/06/22 02:48:04;;;;;;;0.82;0.82;;;17.90;99.90;;;;;;5144738;27;20027;-66
2023/06/22 02:50:30;;;;;;;0.00;0.00;;;17.90;99.90;;;;;;5123207;27;20067;-66
2023/06/22 02:52:56;;;;;;;1.08;0.98;;;17.90;99.90;;;;;;5145573;27;20078;-66
2023/06/22 02:55:22;;;;;;;1.83;0.75;;;17.80;99.90;;;;;;5136016;27;20063;-66
2023/06/22 02:57:47;;;;;;;0.73;0.73;;;17.90;99.90;;;;;;5143355;27;20043;-66
2023/06/22 03:00:17;;;;;;;0.17;0.17;;;17.80;99.90;;;;;;5140959;27;20496;-66
2023/06/22 03:02:47;;;;;;;1.08;0.65;;;17.80;99.90;;;;;;5138242;27;20038;-66
2023/06/22 03:05:14;;;;;;;0.47;0.47;;;17.80;99.90;;;;;;5145596;27;20405;-66
2023/06/22 03:07:43;;;;;;;1.92;1.40;;;17.70;99.90;;;;;;5145201;27;20043;-66
2023/06/22 03:10:09;;;;;;;0.85;0.85;;;17.70;99.90;;;;;;5143934;27;20039;-66
2023/06/22 03:12:35;;;;;;;1.02;0.85;;;17.80;99.90;;;;;;5154024;27;20081;-66
2023/06/22 03:15:01;;;;;;;0.47;0.47;;;17.70;99.90;;;;;;5125824;27;20676;-66
2023/06/22 03:17:27;;;;;;;0.52;0.52;;;17.70;99.90;;;;;;5142421;27;20524;-66
2023/06/22 03:19:52;;;;;;;0.68;0.68;;;17.60;99.90;;;;;;5128799;27;20043;-66
2023/06/22 03:22:18;;;;;;;0.22;0.22;;;17.60;99.90;;;;;;5144410;27;20078;-66
2023/06/22 03:24:43;;;;;;;0.30;0.30;;;17.60;99.90;;;;;;5145004;27;20041;-66
2023/06/22 03:27:09;;;;;;;0.98;0.88;;;17.60;99.90;;;;;;5148112;27;20043;-66
2023/06/22 03:29:35;;;;;;;2.92;0.40;;;17.60;99.90;;;;;;5129113;27;20129;-66
2023/06/22 03:32:00;;;;;;;0.63;0.63;;;17.50;99.90;;;;;;5142888;27;20051;-66
2023/06/22 03:34:26;;;;;;;3.88;2.80;;;17.40;99.90;;;;;;5144291;27;20043;-66
2023/06/22 03:36:52;;;;;;;1.48;1.25;;;17.50;99.90;;;;;;5145174;27;20047;-66
2023/06/22 03:39:17;;;;;;;0.63;0.43;;;17.50;99.90;;;;;;5144109;27;20035;-66
2023/06/22 03:41:43;;;;;;;0.40;0.40;;;17.50;99.90;;;;;;5148065;27;20039;-66
2023/06/22 03:44:12;;;;;;;0.90;0.43;;;17.40;99.90;;;;;;5139892;27;20492;-66
2023/06/22 03:46:38;;;;;;;0.45;0.43;;;17.50;99.90;;;;;;5148652;27;20394;-66
2023/06/22 03:49:04;;;;;;;3.80;2.25;;;17.50;99.90;;;;;;5144472;27;20035;-66
2023/06/22 03:51:31;;;;;;;2.10;0.90;;;17.50;99.90;;;;;;5146957;27;20061;-66
2023/06/22 03:53:57;;;;;;;0.00;0.00;;;17.40;99.90;;;;;;5145699;27;20038;-66
2023/06/22 03:56:22;;;;;;;1.60;0.50;;;17.40;99.90;;;;;;5144857;27;20046;-66
2023/06/22 03:58:48;;;;;;;0.43;0.43;;;17.40;99.90;;;;;;5142533;27;20074;-66
2023/06/22 04:01:13;;;;;;;0.35;0.35;;;17.50;99.90;;;;;;5147358;27;20471;-66
2023/06/22 04:03:41;;;;;;;0.20;0.20;;;17.50;99.90;;;;;;5143643;27;20069;-66
2023/06/22 04:06:06;;;;;;;0.25;0.25;;;17.50;99.90;;;;;;5139888;27;20035;-66
2023/06/22 04:08:32;;;;;;;0.55;0.55;;;17.60;99.90;;;;;;5149019;27;20087;-66
2023/06/22 04:10:57;;;;;;;0.17;0.17;;;17.50;99.90;;;;;;5143443;27;20478;-66
2023/06/22 04:13:23;;;;;;;0.47;0.47;;;17.50;99.90;;;;;;5139532;27;20086;-66
2023/06/22 04:15:48;;;;;;;3.28;1.10;;;17.60;99.90;;;;;;5144357;27;20126;-66
2023/06/22 04:18:14;;;;;;;0.25;0.25;;;17.60;99.90;;;;;;5146329;27;20046;-66
2023/06/22 04:20:40;;;;;;;0.10;0.10;;;17.70;99.90;;;;;;5145980;27;20089;-66
2023/06/22 04:23:06;;;;;;;0.57;0.57;;;17.70;99.90;;;;;;5142665;27;20038;-66
2023/06/22 04:25:31;;;;;;;0.68;0.68;;;17.70;99.90;;;;;;5145392;27;20405;-66
2023/06/22 04:27:57;;;;;;;0.35;0.35;;;17.70;99.90;;;;;;5144519;27;20389;-66
2023/06/22 04:30:22;;;;;;;1.67;0.75;;;17.70;99.90;;;;;;5143131;27;20046;-66
2023/06/22 04:32:57;;;;;;;0.10;0.10;;;17.70;99.90;;;;;;5147626;27;20054;-66
2023/06/22 04:35:28;;;;;;;0.13;0.13;;;17.80;99.90;;;;;;5142033;27;20035;-66
2023/06/22 04:37:56;;;;;;;0.50;0.50;;;17.80;99.90;;;;;;5117761;27;20502;-66
2023/06/22 04:40:24;;;;;;;0.13;0.13;;;17.80;99.90;;;;;;5143847;27;20435;-66
2023/06/22 04:42:53;;;;;;;0.20;0.20;;;17.80;99.90;;;;;;5136155;27;20035;-66
2023/06/22 04:45:20;;;;;;;0.40;0.40;;;17.80;99.90;;;;;;5145708;27;20059;-66
2023/06/22 04:47:46;;;;;;;0.57;0.57;;;17.80;99.90;;;;;;5148133;27;20074;-66
2023/06/22 04:50:12;;;;;;;0.22;0.22;;;17.80;99.90;;;;;;5142608;27;20208;-66
2023/06/22 04:52:38;;;;;;;0.82;0.43;;;17.80;99.90;;;;;;5146089;27;20469;-66
2023/06/22 04:55:04;;;;;;;0.00;0.00;;;17.80;99.90;;;;;;5138493;27;20049;-66
2023/06/22 04:57:32;;;;;;;0.05;0.05;;;17.80;99.90;;;;;;5139247;27;20043;-66
2023/06/22 05:00:01;;;;;;;1.45;0.93;;;17.80;99.90;;;;;;5142572;27;20079;-66
2023/06/22 05:02:31;;;;;;;0.22;0.22;;;17.80;99.90;;;;;;5143881;27;20509;-66
2023/06/22 05:04:57;;;;;;;1.15;0.90;;;17.80;99.90;;;;;;5126590;27;20067;-66
2023/06/22 05:07:25;;;;;;;0.20;0.20;;;17.80;99.90;;;;;;5143131;27;20163;-66
2023/06/22 05:09:51;;;;;;;2.97;0.73;;;17.80;99.90;;;;;;5142385;27;20051;-66
2023/06/22 05:12:16;;;;;;;0.22;0.22;;;17.90;99.90;;;;;;5137564;27;20042;-66
2023/06/22 05:14:42;;;;;;;0.38;0.38;;;17.90;99.90;;;;;;5125355;27;20072;-66
2023/06/22 05:17:13;;;;;;;1.52;1.23;;;17.90;99.90;;;;;;5142638;27;20114;-66
2023/06/22 05:19:39;;;;;;;1.00;0.47;;;18.00;99.90;;;;;;5145804;27;20546;-66
2023/06/22 05:22:06;;;;;;;1.00;0.80;;;18.00;99.90;;;;;;5140199;27;20117;-66
2023/06/22 05:24:32;;;;;;;0.20;0.20;;;18.10;99.90;;;;;;5145523;27;20401;-66
2023/06/22 05:26:57;;;;;;;3.83;1.83;;;18.10;99.90;;;;;;5140923;27;20153;-66
2023/06/22 05:29:23;;;;;;;0.13;0.13;;;18.10;99.90;;;;;;5144529;27;20051;-66
2023/06/22 05:31:49;;;;;;;1.83;1.42;;;18.10;99.90;;;;;;5145054;27;20491;-66
2023/06/22 05:34:15;;;;;;;0.40;0.40;;;18.20;99.90;;;;;;5140241;27;20550;-66
2023/06/22 05:36:40;;;;;;;1.42;1.15;;;18.20;99.90;;;;;;5143451;27;20043;-66
2023/06/22 05:39:16;;;;;;;2.05;1.08;;;18.30;99.90;;;;;;5143203;27;20038;-66
2023/06/22 05:41:43;;;;;;;2.45;0.57;;;18.40;99.90;;;;;;5138577;27;20043;-66
2023/06/22 05:44:08;;;;;;;1.55;1.00;;;18.40;99.90;;;;;;5144168;27;20047;-66
2023/06/22 05:46:34;;;;;;;0.30;0.30;;;18.50;99.90;;;;;;5141943;27;20027;-66
2023/06/22 05:49:00;;;;;;;0.52;0.52;;;18.50;99.90;;;;;;5141376;27;20168;-66
2023/06/22 05:51:25;;;;;;;0.47;0.47;;;18.60;99.90;;;;;;5139431;27;20134;-66
2023/06/22 05:53:51;;;;;;;0.20;0.20;;;18.60;99.90;;;;;;5141726;27;20034;-66
2023/06/22 05:56:17;;;;;;;4.70;1.90;;;18.70;99.90;;;;;;5134616;27;20051;-66
2023/06/22 05:58:42;;;;;;;0.35;0.35;;;18.70;99.90;;;;;;5141923;27;20035;-66
2023/06/22 06:01:08;;;;;;;0.25;0.25;;;18.80;99.90;;;;;;5142043;27;20406;-66
2023/06/22 06:03:34;;;;;;;1.10;0.38;;;18.90;99.90;;;;;;5141645;27;20039;-66
2023/06/22 06:06:02;;;;;;;0.10;0.10;;;19.00;99.90;;;;;;5144082;27;20131;-66
2023/06/22 06:08:27;;;;;;;0.28;0.28;;;19.00;99.90;;;;;;5149003;27;20042;-66
2023/06/22 06:10:54;;;;;;;0.15;0.15;;;19.10;99.90;;;;;;5138344;27;20133;-66
2023/06/22 06:13:20;;;;;;;0.00;0.00;;;19.10;99.90;;;;;;5138748;27;20514;-66
2023/06/22 06:15:46;;;;;;;0.52;0.52;;;19.20;99.90;;;;;;5148900;27;20083;-66
2023/06/22 06:18:11;;;;;;;1.30;0.65;;;19.20;99.90;;;;;;5140234;27;20038;-66
2023/06/22 06:20:37;;;;;;;0.55;0.52;;;19.30;99.90;;;;;;5138488;27;20042;-66
2023/06/22 06:23:03;;;;;;;0.80;0.68;;;19.30;99.90;;;;;;5144845;27;20332;-66
2023/06/22 06:25:28;;;;;;;0.38;0.38;;;19.40;99.90;;;;;;5141045;27;20106;-66
2023/06/22 06:27:54;;;;;;;0.22;0.17;;;19.50;99.90;;;;;;5142789;27;20050;-66
2023/06/22 06:30:20;;;;;;;0.20;0.20;;;19.50;99.90;;;;;;5149304;27;20046;-66
2023/06/22 06:32:47;;;;;;;3.53;0.35;;;19.50;99.90;;;;;;5141752;27;20054;-66
2023/06/22 06:35:15;;;;;;;0.00;0.00;;;19.60;99.90;;;;;;5137206;27;20078;-66
2023/06/22 06:37:42;;;;;;;0.00;0.00;;;19.70;99.90;;;;;;5122161;27;20039;-66
2023/06/22 06:40:10;;;;;;;0.00;0.00;;;19.70;99.90;;;;;;5153101;27;20516;-66
2023/06/22 06:42:46;;;;;;;0.28;0.28;;;19.70;99.90;;;;;;5148565;27;20486;-66
2023/06/22 06:45:15;;;;;;;0.00;0.00;;;19.70;99.90;;;;;;5149544;27;20046;-66
2023/06/22 06:47:40;;;;;;;0.85;0.20;;;19.80;99.90;;;;;;5157353;27;20049;-66
2023/06/22 06:50:07;;;;;;;0.20;0.20;;;19.80;99.90;;;;;;5151293;27;20121;-66
2023/06/22 06:52:32;;;;;;;0.10;0.10;;;19.80;99.90;;;;;;5147913;27;20080;-66
2023/06/22 06:54:59;;;;;;;1.17;1.05;;;19.90;99.90;;;;;;5148042;27;20035;-66
2023/06/22 06:57:28;;;;;;;1.60;0.40;;;20.00;99.90;;;;;;5149580;27;20043;-66
2023/06/22 06:59:57;;;;;;;0.10;0.10;;;20.10;99.90;;;;;;5150839;27;20085;-66
2023/06/22 07:02:23;;;;;;;0.38;0.38;;;20.10;99.90;;;;;;5146489;27;20046;-66
2023/06/22 07:04:49;;;;;;;0.00;0.00;;;20.10;99.90;;;;;;5151262;27;20041;-66
2023/06/22 07:07:15;;;;;;;0.22;0.13;;;20.20;99.90;;;;;;5150701;27;20415;-66
2023/06/22 07:09:41;;;;;;;1.70;0.88;;;20.20;99.90;;;;;;5129412;27;20378;-66
2023/06/22 07:12:07;;;;;;;0.15;0.15;;;20.30;99.90;;;;;;5145287;27;20042;-66
2023/06/22 07:14:32;;;;;;;0.40;0.40;;;20.40;99.90;;;;;;5147801;27;20051;-66
2023/06/22 07:16:58;;;;;;;0.40;0.40;;;20.50;99.90;;;;;;5150734;27;20125;-66
2023/06/22 07:19:26;;;;;;;0.98;0.57;;;20.50;99.90;;;;;;5149375;27;20039;-66
2023/06/22 07:21:51;;;;;;;0.57;0.57;;;20.60;99.90;;;;;;5155359;27;20402;-66
2023/06/22 07:24:17;;;;;;;0.00;0.00;;;20.70;99.90;;;;;;5147469;27;20043;-66
2023/06/22 07:26:45;;;;;;;0.15;0.15;;;20.70;99.90;;;;;;5151792;27;20533;-66
2023/06/22 07:29:11;;;;;;;2.47;0.98;;;20.90;99.90;;;;;;5124710;27;20057;-66
2023/06/22 07:31:37;;;;;;;0.10;0.10;;;21.00;99.90;;;;;;5150375;27;20488;-66
2023/06/22 07:34:04;;;;;;;0.00;0.00;;;21.00;99.90;;;;;;5144110;27;20074;-66
2023/06/22 07:36:30;;;;;;;0.90;0.90;;;21.00;99.90;;;;;;5146528;27;20378;-66
2023/06/22 07:38:55;;;;;;;0.43;0.38;;;21.10;99.90;;;;;;5147776;27;20458;-66
2023/06/22 07:41:21;;;;;;;12.25;2.40;;;21.10;99.90;;;;;;5147284;27;20039;-66
2023/06/22 07:43:47;;;;;;;0.28;0.28;;;21.20;99.90;;;;;;5127404;27;20043;-66
2023/06/22 07:46:12;;;;;;;0.00;0.00;;;21.20;99.90;;;;;;5147266;27;20122;-66
2023/06/22 07:48:39;;;;;;;0.10;0.10;;;21.30;99.90;;;;;;5145871;27;20035;-66
2023/06/22 07:51:06;;;;;;;0.55;0.25;;;21.40;99.90;;;;;;5135625;27;20118;-66
2023/06/22 07:53:31;;;;;;;0.10;0.10;;;21.50;99.90;;;;;;5146897;27;20042;-66
2023/06/22 07:55:57;;;;;;;0.20;0.20;;;21.50;99.90;;;;;;5148711;27;20474;-66
2023/06/22 07:58:22;;;;;;;0.00;0.00;;;21.60;99.90;;;;;;5146078;27;20098;-66
2023/06/22 08:00:49;;;;;;;0.32;0.32;;;21.60;99.90;;;;;;5147405;27;20030;-66
2023/06/22 08:03:15;;;;;;;0.17;0.17;;;21.70;99.90;;;;;;5142170;27;20095;-66
2023/06/22 08:05:40;;;;;;;0.00;0.00;;;21.80;99.90;;;;;;5145549;27;20375;-66
2023/06/22 08:08:06;;;;;;;1.23;1.10;;;21.90;99.90;;;;;;5142624;27;20100;-66
2023/06/22 08:10:32;;;;;;;0.30;0.30;;;21.90;99.90;;;;;;5143295;27;20039;-66
2023/06/22 08:12:57;;;;;;;0.17;0.17;;;22.00;99.90;;;;;;5140664;27;20031;-66
2023/06/22 08:15:23;;;;;;;0.15;0.15;;;22.10;99.90;;;;;;5143875;27;20490;-66
2023/06/22 08:17:49;;;;;;;0.00;0.00;;;22.20;99.90;;;;;;5139997;27;20047;-66
2023/06/22 08:20:15;;;;;;;0.00;0.00;;;22.20;99.90;;;;;;5144007;27;20402;-66
2023/06/22 08:22:41;;;;;;;0.50;0.40;;;22.30;99.90;;;;;;5142441;27;20043;-66
2023/06/22 08:25:08;;;;;;;1.27;0.55;;;22.40;99.90;;;;;;5146581;27;20036;-66
2023/06/22 08:27:35;;;;;;;1.92;1.42;;;22.50;99.90;;;;;;5143307;27;20057;-66
2023/06/22 08:30:01;;;;;;;0.25;0.25;;;22.50;99.90;;;;;;5148165;27;20050;-66
2023/06/22 08:32:32;;;;;;;0.47;0.47;;;22.60;99.90;;;;;;5122184;27;20055;-66
2023/06/22 08:34:58;;;;;;;0.10;0.10;;;22.60;99.90;;;;;;5145562;27;20057;-66
2023/06/22 08:37:30;;;;;;;0.00;0.00;;;22.60;99.90;;;;;;5139284;27;20039;-66
2023/06/22 08:39:59;;;;;;;0.45;0.45;;;22.70;99.90;;;;;;5143981;27;20034;-66
2023/06/22 08:42:25;;;;;;;0.73;0.73;;;22.80;99.90;;;;;;5143375;27;20046;-66
2023/06/22 08:44:51;;;;;;;0.00;0.00;;;22.80;99.90;;;;;;5130884;27;20113;-66
2023/06/22 08:47:16;;;;;;;0.63;0.63;;;22.90;99.90;;;;;;5150000;27;20106;-66
2023/06/22 08:49:42;;;;;;;0.00;0.00;;;23.00;99.90;;;;;;5152714;27;20056;-66
2023/06/22 08:52:07;;;;;;;0.15;0.10;;;23.00;99.90;;;;;;5142815;27;20034;-66
2023/06/22 08:54:34;;;;;;;0.30;0.30;;;23.00;99.90;;;;;;5152390;27;20516;-66
2023/06/22 08:57:00;;;;;;;0.00;0.00;;;23.10;99.90;;;;;;5140298;27;20122;-66
2023/06/22 08:59:26;;;;;;;0.00;0.00;;;23.20;99.90;;;;;;5148536;27;20443;-66
2023/06/22 09:01:51;;;;;;;0.05;0.05;;;23.20;99.90;;;;;;5141431;27;20034;-66
2023/06/22 09:04:17;;;;;;;1.75;0.32;;;23.20;99.90;;;;;;5142926;27;20509;-67
2023/06/22 09:06:46;;;;;;;0.00;0.00;;;23.30;99.90;;;;;;5142688;27;20131;-67
2023/06/22 09:09:16;;;;;;;0.82;0.30;;;23.40;99.90;;;;;;5145218;27;20548;-66
2023/06/22 09:11:42;;;;;;;4.45;0.95;;;23.40;99.90;;;;;;5141957;27;20127;-66
2023/06/22 09:14:08;;;;;;;0.00;0.00;;;23.50;99.90;;;;;;5126668;27;20110;-66
2023/06/22 09:16:34;;;;;;;0.98;0.68;;;23.60;99.90;;;;;;5117700;27;20403;-66
2023/06/22 09:19:00;;;;;;;0.38;0.20;;;23.60;99.90;;;;;;5148919;27;20367;-66
2023/06/22 09:21:25;;;;;;;0.35;0.35;;;23.70;99.90;;;;;;5141338;27;20053;-66
2023/06/22 09:23:51;;;;;;;0.93;0.28;;;23.70;99.90;;;;;;5143435;27;20035;-66
2023/06/22 09:26:18;;;;;;;0.20;0.20;;;23.70;99.90;;;;;;5127222;27;20051;-66
2023/06/22 09:28:43;;;;;;;0.15;0.15;;;23.80;99.90;;;;;;5126507;27;20107;-66
2023/06/22 09:31:09;;;;;;;1.45;0.40;;;23.90;99.90;;;;;;5141342;27;20454;-67
2023/06/22 09:33:36;;;;;;;0.00;0.00;;;24.00;99.90;;;;;;5124748;27;20043;-67
2023/06/22 09:36:02;;;;;;;0.32;0.32;;;24.00;99.90;;;;;;5143048;27;20101;-67
2023/06/22 09:38:27;;;;;;;0.75;0.47;;;24.10;99.90;;;;;;5145322;27;20034;-66
2023/06/22 09:40:53;;;;;;;0.43;0.40;;;24.30;99.90;;;;;;5140075;27;20091;-67
2023/06/22 09:43:18;;;;;;;0.00;0.00;;;24.40;99.90;;;;;;5142094;27;20049;-67
2023/06/22 09:45:44;;;;;;;0.03;0.03;;;24.50;99.90;;;;;;5145406;27;20027;-67
2023/06/22 09:48:10;;;;;;;0.10;0.00;;;24.80;99.90;;;;;;5140339;27;20041;-66
2023/06/22 09:50:37;;;;;;;0.00;0.00;;;25.10;99.90;;;;;;5124459;27;20066;-67
2023/06/22 09:53:02;;;;;;;0.22;0.22;;;25.50;99.90;;;;;;5145327;27;20431;-67
2023/06/22 09:55:28;;;;;;;0.10;0.10;;;25.40;99.90;;;;;;5137407;27;20110;-67
2023/06/22 09:57:55;;;;;;;2.03;0.73;;;25.40;99.90;;;;;;5143849;27;20039;-67
2023/06/22 10:00:21;;;;;;;0.73;0.30;;;25.50;99.90;;;;;;5141843;27;20565;-67
2023/06/22 10:02:47;;;;;;;0.03;0.03;;;25.70;99.90;;;;;;5143979;27;20074;-67
2023/06/22 10:05:13;;;;;;;0.00;0.00;;;25.80;99.90;;;;;;5144900;27;20163;-67
2023/06/22 10:07:42;;;;;;;0.00;0.00;;;26.00;99.90;;;;;;5139727;27;20100;-67
2023/06/22 10:10:08;;;;;;;0.00;0.00;;;26.10;99.90;;;;;;5140892;27;20501;-67
2023/06/22 10:12:34;;;;;;;0.65;0.40;;;26.30;99.90;;;;;;5149415;27;20042;-67
2023/06/22 10:14:59;;;;;;;0.22;0.22;;;26.30;99.90;;;;;;5139713;27;20049;-67
2023/06/22 10:17:25;;;;;;;0.50;0.50;;;26.30;99.90;;;;;;5141161;27;20137;-67
2023/06/22 10:19:51;;;;;;;0.00;0.00;;;26.30;99.90;;;;;;5142303;27;20042;-67
2023/06/22 10:22:16;;;;;;;0.00;0.00;;;26.40;99.90;;;;;;5139132;27;20051;-67
2023/06/22 10:24:45;;;;;;;0.00;0.00;;;26.40;99.90;;;;;;5140905;27;20426;-67
2023/06/22 10:27:11;;;;;;;0.00;0.00;;;26.50;99.90;;;;;;5144676;27;20083;-67
2023/06/22 10:29:37;;;;;;;0.03;0.03;;;26.60;99.90;;;;;;5143661;27;20047;-67
2023/06/22 10:32:03;;;;;;;0.20;0.20;;;26.40;99.90;;;;;;5143944;27;20428;-67
2023/06/22 10:34:29;;;;;;;2.20;1.20;;;26.40;99.90;;;;;;5139024;27;20043;-67
2023/06/22 10:36:55;;;;;;;0.08;0.08;;;26.30;99.90;;;;;;5146233;27;20408;-67
2023/06/22 10:39:20;;;;;;;0.08;0.08;;;26.30;99.90;;;;;;5135948;27;20434;-67
2023/06/22 10:41:46;;;;;;;0.50;0.50;;;26.20;99.90;;;;;;5144968;27;20030;-67
2023/06/22 10:44:12;;;;;;;1.17;0.28;;;26.40;99.90;;;;;;5149420;27;20027;-67
2023/06/22 10:46:38;;;;;;;0.22;0.15;;;26.50;99.90;;;;;;5140497;27;20116;-67
2023/06/22 10:49:03;;;;;;;0.20;0.20;;;26.60;99.90;;;;;;5143603;27;20042;-67
2023/06/22 10:51:30;;;;;;;0.00;0.00;;;26.70;99.90;;;;;;5140267;27;20030;-67
2023/06/22 10:53:56;;;;;;;0.00;0.00;;;26.70;99.90;;;;;;5144489;27;20035;-67
2023/06/22 10:56:22;;;;;;;0.20;0.20;;;26.70;99.90;;;;;;5141609;27;20417;-67
2023/06/22 10:58:47;;;;;;;1.02;0.28;;;26.80;99.90;;;;;;5144056;27;20031;-67
2023/06/22 11:01:13;;;;;;;0.30;0.30;;;26.90;99.90;;;;;;5142963;27;20179;-67
2023/06/22 11:03:39;;;;;;;0.32;0.28;;;27.00;99.90;;;;;;5144012;27;20042;-67
2023/06/22 11:06:05;;;;;;;0.82;0.82;;;27.00;99.90;;;;;;5143996;27;20049;-67
2023/06/22 11:08:30;;;;;;;0.10;0.10;;;27.20;99.90;;;;;;5140607;27;20046;-67
2023/06/22 11:10:56;;;;;;;0.10;0.10;;;27.20;99.90;;;;;;5152512;27;20039;-67
2023/06/22 11:13:21;;;;;;;0.25;0.25;;;27.40;99.90;;;;;;5144624;27;20079;-67
2023/06/22 11:15:47;;;;;;;0.15;0.15;;;27.50;99.90;;;;;;5143357;27;20042;-67
2023/06/22 11:18:13;;;;;;;0.13;0.13;;;27.60;99.90;;;;;;5141227;27;20070;-67
2023/06/22 11:20:38;;;;;;;0.15;0.15;;;27.70;99.90;;;;;;5146700;27;20058;-67
2023/06/22 11:23:08;;;;;;;0.35;0.10;;;27.50;99.90;;;;;;5137287;27;20042;-67
2023/06/22 11:25:38;;;;;;;0.00;0.00;;;27.30;99.90;;;;;;5147224;27;20049;-67
2023/06/22 11:28:04;;;;;;;0.10;0.10;;;27.40;99.90;;;;;;5144952;27;20497;-67
2023/06/22 11:30:30;;;;;;;5.00;0.90;;;27.30;99.90;;;;;;5148209;27;20045;-67
2023/06/22 11:32:59;;;;;;;0.13;0.13;;;27.10;99.90;;;;;;5145764;27;20040;-67
2023/06/22 11:35:25;;;;;;;8.10;0.55;;;27.10;99.90;;;;;;5146784;27;20043;-67
2023/06/22 11:37:51;;;;;;;0.00;0.00;;;27.20;99.90;;;;;;5146404;27;20051;-67
2023/06/22 11:40:17;;;;;;;3.65;0.88;;;26.90;99.90;;;;;;5144325;27;20039;-67
2023/06/22 11:42:43;;;;;;;0.00;0.00;;;26.80;99.90;;;;;;5143474;27;20035;-67
2023/06/22 11:45:09;;;;;;;0.43;0.10;;;27.00;99.90;;;;;;5146204;27;20174;-67
2023/06/22 11:47:36;;;;;;;0.90;0.10;;;27.30;99.90;;;;;;5147437;27;20081;-67
2023/06/22 11:50:03;;;;;;;1.55;1.45;;;27.50;99.90;;;;;;5144726;27;20066;-68
2023/06/22 11:52:28;;;;;;;0.00;0.00;;;27.50;99.90;;;;;;5148316;27;20057;-67
2023/06/22 11:54:54;;;;;;;0.57;0.17;;;27.60;99.90;;;;;;5122767;27;20039;-68
2023/06/22 11:57:19;;;;;;;0.70;0.38;;;27.70;99.90;;;;;;5126359;27;20462;-67
2023/06/22 11:59:45;;;;;;;0.00;0.00;;;27.80;99.90;;;;;;5134035;27;20047;-67
2023/06/22 12:02:11;;;;;;;0.00;0.00;;;28.20;99.90;;;;;;5146588;27;20030;-68
2023/06/22 12:04:37;;;;;;;0.30;0.30;;;28.30;99.90;;;;;;5143916;27;20043;-68
2023/06/22 12:07:03;;;;;;;0.32;0.32;;;28.20;99.90;;;;;;5147860;27;20466;-68
2023/06/22 12:09:29;;;;;;;0.10;0.10;;;28.30;99.90;;;;;;5145628;27;20043;-68
2023/06/22 12:11:54;;;;;;;0.00;0.00;;;28.20;99.90;;;;;;5145584;27;20039;-68
2023/06/22 12:14:20;;;;;;;0.00;0.00;;;28.40;99.90;;;;;;5142912;27;20379;-67
2023/06/22 12:16:46;;;;;;;0.00;0.00;;;28.30;99.90;;;;;;5145222;27;20078;-68
2023/06/22 12:19:11;;;;;;;0.28;0.20;;;28.10;99.90;;;;;;5147999;27;20480;-68
2023/06/22 12:21:38;;;;;;;0.10;0.10;;;28.00;99.90;;;;;;5145371;27;20508;-68
2023/06/22 12:24:03;;;;;;;0.32;0.22;;;27.90;99.90;;;;;;5143090;27;20062;-68
2023/06/22 12:26:29;;;;;;;0.00;0.00;;;27.70;99.90;;;;;;5143663;27;20071;-68
2023/06/22 12:28:54;;;;;;;0.00;0.00;;;27.50;99.90;;;;;;5146582;27;20122;-68
2023/06/22 12:31:20;;;;;;;0.05;0.00;;;27.60;99.90;;;;;;5147409;27;20047;-68
2023/06/22 12:33:45;;;;;;;0.10;0.10;;;27.50;99.90;;;;;;5143558;27;20055;-68
2023/06/22 12:36:11;;;;;;;0.00;0.00;;;27.40;99.90;;;;;;5146358;27;20078;-68
2023/06/22 12:38:37;;;;;;;0.00;0.00;;;27.40;99.90;;;;;;5142987;27;20043;-68
2023/06/22 12:41:02;;;;;;;0.00;0.00;;;27.20;99.90;;;;;;5144508;27;20067;-68
2023/06/22 12:43:28;;;;;;;0.00;0.00;;;27.20;99.90;;;;;;5146753;27;20030;-67
2023/06/22 12:45:53;;;;;;;0.45;0.35;;;27.00;99.90;;;;;;5146104;27;20055;-68